createdAt,value
2022-10-30T00:00:49.784Z,88.48
2022-10-30T00:03:14.590Z,88.79
2022-10-30T00:05:38.238Z,88.86
2022-10-30T00:08:02.090Z,88.68
2022-10-30T00:10:26.699Z,89.08
2022-10-30T00:12:51.687Z,88.79
2022-10-30T00:15:15.422Z,88.74
2022-10-30T00:17:39.014Z,88.60
2022-10-30T00:20:02.549Z,87.66
2022-10-30T00:22:26.297Z,88.44
2022-10-30T00:24:50.130Z,90.25
2022-10-30T00:27:13.690Z,88.38
2022-10-30T00:29:38.801Z,89.00
2022-10-30T00:32:02.518Z,88.92
2022-10-30T00:34:26.142Z,88.89
2022-10-30T00:36:49.792Z,87.93
2022-10-30T00:39:13.478Z,87.93
2022-10-30T00:41:39.545Z,87.63
2022-10-30T00:44:03.102Z,88.65
2022-10-30T00:46:32.833Z,88.59
2022-10-30T00:48:59.751Z,88.58
2022-10-30T00:51:23.907Z,88.76
2022-10-30T00:53:49.472Z,88.52
2022-10-30T00:56:14.240Z,88.26
2022-10-30T00:58:41.676Z,87.78
2022-10-30T01:01:09.469Z,88.73
2022-10-30T01:03:36.584Z,89.78
2022-10-30T01:06:07.537Z,88.67
2022-10-30T01:08:32.027Z,88.15
2022-10-30T01:10:55.904Z,87.15
2022-10-30T01:13:21.595Z,87.10
2022-10-30T01:16:14.442Z,87.93
2022-10-30T01:18:51.014Z,88.56
2022-10-30T01:21:32.259Z,88.44
2022-10-30T01:24:13.528Z,87.68
2022-10-30T01:26:45.984Z,87.87
2022-10-30T01:29:28.157Z,88.04
2022-10-30T01:32:14.057Z,88.51
2022-10-30T01:34:54.589Z,88.25
2022-10-30T01:37:27.438Z,87.94
2022-10-30T01:39:51.855Z,88.15
2022-10-30T01:42:54.969Z,88.07
2022-10-30T01:45:37.421Z,88.54
2022-10-30T01:48:49.173Z,88.46
2022-10-30T01:51:26.076Z,88.07
2022-10-30T01:53:59.354Z,89.01
2022-10-30T01:56:37.036Z,88.64
2022-10-30T01:59:12.694Z,88.17
2022-10-30T02:01:37.861Z,88.75
2022-10-30T02:06:32.769Z,88.56
2022-10-30T02:08:57.623Z,88.29
2022-10-30T02:11:21.708Z,89.04
2022-10-30T02:13:45.557Z,88.47
2022-10-30T02:16:11.269Z,89.36
2022-10-30T02:18:34.885Z,88.61
2022-10-30T02:21:00.915Z,89.09
2022-10-30T02:23:24.443Z,89.91
2022-10-30T02:25:48.131Z,88.91
2022-10-30T02:28:11.659Z,88.69
2022-10-30T02:30:35.382Z,88.92
2022-10-30T02:32:59.201Z,89.55
2022-10-30T02:35:23.310Z,88.82
2022-10-30T02:37:51.232Z,89.06
2022-10-30T02:40:15.193Z,88.55
2022-10-30T02:42:38.709Z,88.59
2022-10-30T02:45:02.289Z,88.89
2022-10-30T02:47:25.917Z,88.65
2022-10-30T02:49:49.545Z,88.68
2022-10-30T02:52:13.173Z,88.55
2022-10-30T02:54:40.081Z,88.12
2022-10-30T02:57:03.768Z,87.68
2022-10-30T02:59:27.437Z,87.89
2022-10-30T03:01:51.216Z,88.08
2022-10-30T03:04:15.187Z,90.02
2022-10-30T03:06:39.947Z,89.87
2022-10-30T03:09:03.613Z,90.49
2022-10-30T03:11:28.724Z,91.70
2022-10-30T03:13:52.708Z,92.39
2022-10-30T03:16:21.184Z,92.96
2022-10-30T03:18:45.554Z,92.78
2022-10-30T03:21:12.088Z,91.09
2022-10-30T03:23:36.586Z,89.93
2022-10-30T03:26:01.299Z,90.00
2022-10-30T03:28:30.729Z,91.08
2022-10-30T03:31:00.546Z,90.11
2022-10-30T03:33:24.409Z,89.95
2022-10-30T03:35:47.979Z,90.72
2022-10-30T03:38:11.621Z,89.67
2022-10-30T03:40:35.133Z,91.43
2022-10-30T03:42:58.945Z,90.93
2022-10-30T03:45:24.282Z,90.53
2022-10-30T03:47:47.865Z,90.55
2022-10-30T03:50:11.662Z,90.55
2022-10-30T03:52:35.769Z,92.18
2022-10-30T03:54:59.291Z,92.55
2022-10-30T03:57:22.918Z,92.95
2022-10-30T04:00:00.566Z,94.55
2022-10-30T04:02:38.681Z,95.43
2022-10-30T04:05:02.366Z,94.91
2022-10-30T04:07:25.909Z,93.81
2022-10-30T04:09:49.910Z,93.93
2022-10-30T04:12:13.478Z,94.12
2022-10-30T04:14:37.068Z,93.87
2022-10-30T04:17:00.659Z,94.91
2022-10-30T04:19:25.634Z,95.24
2022-10-30T04:21:51.303Z,94.45
2022-10-30T04:24:18.732Z,95.46
2022-10-30T04:26:44.889Z,93.33
2022-10-30T04:29:08.628Z,92.59
2022-10-30T04:31:32.122Z,92.80
2022-10-30T04:33:55.735Z,95.50
2022-10-30T04:36:21.998Z,95.09
2022-10-30T04:38:46.073Z,93.29
2022-10-30T04:41:10.007Z,92.64
2022-10-30T04:43:44.356Z,93.60
2022-10-30T04:46:08.107Z,94.18
2022-10-30T04:48:31.647Z,94.85
2022-10-30T04:50:55.206Z,95.16
2022-10-30T04:53:22.832Z,94.85
2022-10-30T04:55:55.550Z,94.60
2022-10-30T04:58:19.167Z,95.57
2022-10-30T05:00:48.286Z,94.80
2022-10-30T05:03:20.129Z,93.99
2022-10-30T05:05:43.769Z,94.52
2022-10-30T05:08:07.413Z,96.22
2022-10-30T05:10:32.434Z,96.03
2022-10-30T05:12:55.962Z,94.47
2022-10-30T05:15:19.559Z,94.95
2022-10-30T05:17:44.644Z,95.85
2022-10-30T05:20:10.544Z,96.49
2022-10-30T05:22:35.773Z,95.55
2022-10-30T05:24:59.695Z,95.68
2022-10-30T05:27:24.707Z,96.48
2022-10-30T05:29:48.376Z,96.26
2022-10-30T05:34:44.502Z,95.48
2022-10-30T05:37:09.032Z,94.75
2022-10-30T05:39:33.155Z,94.55
2022-10-30T05:41:56.776Z,94.42
2022-10-30T05:44:40.772Z,95.56
2022-10-30T05:47:12.266Z,98.38
2022-10-30T05:49:39.401Z,97.72
2022-10-30T05:52:08.474Z,96.60
2022-10-30T05:54:32.573Z,95.70
2022-10-30T05:57:10.924Z,95.30
2022-10-30T05:59:37.653Z,97.29
2022-10-30T06:02:01.234Z,95.65
2022-10-30T06:04:24.981Z,96.54
2022-10-30T06:06:48.702Z,96.19
2022-10-30T06:09:12.298Z,95.91
2022-10-30T06:12:08.434Z,96.84
2022-10-30T06:14:56.430Z,95.52
2022-10-30T06:17:20.165Z,95.98
2022-10-30T06:19:51.481Z,95.24
2022-10-30T06:22:32.944Z,95.14
2022-10-30T06:25:01.347Z,95.61
2022-10-30T06:27:43.291Z,94.85
2022-10-30T06:30:09.882Z,94.34
2022-10-30T06:32:33.651Z,94.76
2022-10-30T06:34:57.736Z,94.44
2022-10-30T06:37:21.565Z,93.67
2022-10-30T06:39:45.578Z,95.03
2022-10-30T06:42:34.940Z,96.31
2022-10-30T06:45:04.987Z,95.94
2022-10-30T06:47:30.389Z,95.90
2022-10-30T06:49:54.439Z,94.59
2022-10-30T06:52:19.388Z,94.08
2022-10-30T06:54:43.022Z,95.18
2022-10-30T06:57:25.297Z,93.69
2022-10-30T07:00:09.813Z,93.29
2022-10-30T07:03:04.622Z,95.27
2022-10-30T07:05:28.913Z,94.84
2022-10-30T07:07:52.439Z,95.22
2022-10-30T07:10:16.311Z,93.67
2022-10-30T07:13:03.035Z,93.31
2022-10-30T07:15:40.021Z,94.70
2022-10-30T07:18:18.812Z,96.16
2022-10-30T07:20:44.495Z,96.66
2022-10-30T07:23:08.046Z,95.66
2022-10-30T07:25:31.841Z,96.92
2022-10-30T07:28:04.504Z,97.20
2022-10-30T07:30:39.082Z,97.98
2022-10-30T07:33:12.753Z,97.97
2022-10-30T07:35:55.091Z,98.57
2022-10-30T07:38:40.830Z,98.24
2022-10-30T07:41:20.410Z,98.86
2022-10-30T07:43:47.591Z,98.13
2022-10-30T07:46:39.998Z,98.07
2022-10-30T07:49:18.838Z,98.24
2022-10-30T07:51:48.020Z,98.18
2022-10-30T07:54:12.000Z,99.10
2022-10-30T07:56:35.657Z,98.53
2022-10-30T07:59:17.501Z,98.08
2022-10-30T08:02:01.962Z,97.48
2022-10-30T08:04:33.525Z,97.31
2022-10-30T08:07:08.311Z,95.91
2022-10-30T08:09:31.894Z,94.88
2022-10-30T08:11:55.416Z,93.77
2022-10-30T08:14:19.091Z,94.74
2022-10-30T08:16:42.657Z,95.52
2022-10-30T08:19:06.619Z,94.60
2022-10-30T08:21:30.372Z,92.51
2022-10-30T08:24:03.420Z,91.93
2022-10-30T08:26:29.574Z,90.80
2022-10-30T08:28:53.231Z,91.83
2022-10-30T08:31:17.202Z,89.86
2022-10-30T08:33:58.687Z,90.64
2022-10-30T08:36:26.592Z,88.36
2022-10-30T08:38:50.111Z,87.80
2022-10-30T08:41:35.385Z,87.81
2022-10-30T08:43:59.025Z,85.83
2022-10-30T08:46:29.267Z,84.59
2022-10-30T08:48:54.982Z,84.01
2022-10-30T08:51:19.022Z,85.09
2022-10-30T08:53:43.199Z,84.69
2022-10-30T08:56:10.380Z,84.50
2022-10-30T08:58:49.086Z,83.98
2022-10-30T09:01:12.961Z,81.06
2022-10-30T09:04:09.211Z,80.14
2022-10-30T09:06:51.050Z,77.63
2022-10-30T09:09:33.037Z,74.55
2022-10-30T09:11:59.235Z,74.67
2022-10-30T09:14:24.525Z,72.05
2022-10-30T09:16:48.148Z,68.09
2022-10-30T09:19:18.629Z,69.66
2022-10-30T09:21:43.189Z,66.20
2022-10-30T09:24:07.607Z,68.46
2022-10-30T09:26:31.379Z,66.10
2022-10-30T09:29:05.566Z,67.29
2022-10-30T09:31:58.506Z,66.55
2022-10-30T09:34:23.483Z,62.85
2022-10-30T09:36:55.755Z,62.61
2022-10-30T09:39:20.237Z,60.63
2022-10-30T09:42:11.173Z,58.23
2022-10-30T09:44:56.494Z,57.69
2022-10-30T09:47:43.505Z,57.39
2022-10-30T09:50:23.096Z,54.94
2022-10-30T09:53:02.746Z,57.00
2022-10-30T09:55:36.816Z,54.83
2022-10-30T09:58:13.107Z,55.65
2022-10-30T10:00:41.343Z,58.00
2022-10-30T10:03:35.455Z,55.22
2022-10-30T10:06:21.628Z,55.08
2022-10-30T10:09:03.189Z,55.22
2022-10-30T10:11:55.249Z,55.74
2022-10-30T10:14:24.702Z,56.62
2022-10-30T10:16:53.891Z,55.68
2022-10-30T10:19:23.425Z,53.60
2022-10-30T10:21:52.606Z,52.67
2022-10-30T10:24:20.759Z,52.46
2022-10-30T10:26:50.860Z,55.01
2022-10-30T10:29:46.051Z,54.53
2022-10-30T10:32:50.065Z,55.02
2022-10-30T10:35:51.718Z,56.08
2022-10-30T10:38:31.925Z,55.15
2022-10-30T10:41:03.478Z,56.86
2022-10-30T10:43:41.485Z,56.26
2022-10-30T10:46:27.568Z,55.71
2022-10-30T10:49:13.140Z,56.15
2022-10-30T10:51:42.392Z,56.71
2022-10-30T10:54:13.341Z,56.63
2022-10-30T10:56:41.909Z,56.06
2022-10-30T10:59:09.058Z,55.84
2022-10-30T11:01:39.548Z,55.68
2022-10-30T11:04:12.137Z,55.53
2022-10-30T11:06:42.182Z,55.90
2022-10-30T11:09:19.525Z,55.31
2022-10-30T11:11:43.357Z,56.33
2022-10-30T11:14:14.767Z,55.72
2022-10-30T11:16:50.570Z,56.62
2022-10-30T11:19:14.217Z,57.71
2022-10-30T11:21:50.324Z,56.00
2022-10-30T11:24:30.528Z,56.75
2022-10-30T11:26:55.293Z,57.24
2022-10-30T11:29:24.797Z,59.51
2022-10-30T11:31:48.358Z,56.50
2022-10-30T11:34:30.406Z,58.04
2022-10-30T11:36:56.369Z,57.65
2022-10-30T11:39:23.698Z,57.90
2022-10-30T11:41:56.503Z,58.85
2022-10-30T11:44:20.130Z,59.27
2022-10-30T11:46:43.753Z,58.07
2022-10-30T11:49:07.411Z,59.40
2022-10-30T11:51:37.583Z,58.01
2022-10-30T11:54:03.444Z,58.82
2022-10-30T11:56:27.459Z,59.01
2022-10-30T11:58:54.293Z,58.87
2022-10-30T12:01:24.320Z,58.74
2022-10-30T12:03:47.959Z,59.20
2022-10-30T12:06:19.262Z,59.37
2022-10-30T12:08:42.841Z,59.94
2022-10-30T12:11:08.165Z,58.92
2022-10-30T12:13:39.137Z,59.94
2022-10-30T12:16:15.965Z,59.46
2022-10-30T12:18:40.981Z,61.28
2022-10-30T12:21:05.375Z,58.79
2022-10-30T12:23:30.665Z,59.48
2022-10-30T12:25:56.148Z,59.12
2022-10-30T12:28:23.401Z,59.71
2022-10-30T12:30:54.475Z,58.55
2022-10-30T12:33:22.246Z,57.97
2022-10-30T12:35:52.423Z,58.35
2022-10-30T12:38:26.341Z,59.25
2022-10-30T12:41:05.105Z,58.37
2022-10-30T12:43:30.734Z,58.53
2022-10-30T12:45:59.579Z,58.84
2022-10-30T12:48:29.409Z,58.44
2022-10-30T12:51:07.189Z,58.44
2022-10-30T12:53:37.368Z,59.43
2022-10-30T12:56:06.573Z,58.41
2022-10-30T12:58:39.518Z,60.09
2022-10-30T13:01:10.645Z,58.92
2022-10-30T13:03:41.261Z,58.68
2022-10-30T13:06:14.052Z,57.87
2022-10-30T13:08:44.004Z,57.98
2022-10-30T13:11:30.127Z,58.54
2022-10-30T13:13:56.718Z,59.72
2022-10-30T13:16:27.643Z,58.70
2022-10-30T13:18:53.138Z,59.19
2022-10-30T13:21:25.666Z,57.82
2022-10-30T13:23:54.903Z,58.55
2022-10-30T13:26:28.580Z,62.24
2022-10-30T13:29:02.625Z,59.58
2022-10-30T13:31:36.560Z,58.87
2022-10-30T13:34:08.221Z,59.38
2022-10-30T13:36:43.274Z,59.77
2022-10-30T13:39:25.597Z,61.09
2022-10-30T13:42:15.985Z,59.62
2022-10-30T13:44:54.060Z,59.97
2022-10-30T13:47:32.109Z,60.87
2022-10-30T13:50:17.325Z,59.84
2022-10-30T13:52:47.562Z,60.72
2022-10-30T13:55:21.313Z,60.46
2022-10-30T13:57:53.248Z,60.99
2022-10-30T14:00:21.415Z,60.58
2022-10-30T14:03:05.053Z,60.14
2022-10-30T14:05:37.748Z,61.23
2022-10-30T14:08:11.089Z,61.17
2022-10-30T14:10:47.053Z,60.55
2022-10-30T14:13:27.341Z,62.12
2022-10-30T14:15:56.574Z,61.64
2022-10-30T14:19:00.643Z,62.01
2022-10-30T14:21:44.295Z,62.31
2022-10-30T14:24:15.597Z,63.61
2022-10-30T14:26:40.177Z,64.80
2022-10-30T14:29:43.710Z,66.15
2022-10-30T14:32:36.982Z,64.64
2022-10-30T14:35:00.729Z,64.90
2022-10-30T14:37:58.189Z,66.08
2022-10-30T14:40:40.292Z,65.81
2022-10-30T14:43:10.796Z,65.75
2022-10-30T14:45:43.551Z,65.96
2022-10-30T14:48:17.365Z,66.14
2022-10-30T14:50:59.323Z,68.35
2022-10-30T14:53:36.393Z,67.69
2022-10-30T14:56:09.893Z,68.43
2022-10-30T14:58:35.727Z,68.61
2022-10-30T15:01:24.851Z,69.13
2022-10-30T15:03:57.441Z,69.57
2022-10-30T15:06:30.871Z,71.07
2022-10-30T15:09:13.837Z,71.40
2022-10-30T15:12:06.910Z,72.02
2022-10-30T15:14:53.575Z,72.12
2022-10-30T15:17:25.667Z,72.21
2022-10-30T15:19:49.479Z,73.26
2022-10-30T15:22:20.513Z,72.83
2022-10-30T15:24:44.098Z,73.35
2022-10-30T15:27:07.738Z,74.29
2022-10-30T15:29:35.372Z,74.21
2022-10-30T15:32:01.354Z,74.36
2022-10-30T15:34:27.831Z,74.77
2022-10-30T15:36:51.565Z,75.64
2022-10-30T15:39:16.977Z,75.59
2022-10-30T15:41:46.361Z,75.71
2022-10-30T15:44:09.995Z,76.28
2022-10-30T15:46:33.689Z,76.35
2022-10-30T15:48:57.717Z,76.75
2022-10-30T15:51:24.775Z,77.01
2022-10-30T15:53:52.378Z,76.87
2022-10-30T15:56:23.640Z,77.10
2022-10-30T15:58:54.329Z,77.12
2022-10-30T16:01:27.819Z,77.72
2022-10-30T16:03:54.357Z,78.19
2022-10-30T16:06:19.117Z,78.63
2022-10-30T16:08:48.950Z,79.69
2022-10-30T16:11:12.735Z,79.32
2022-10-30T16:13:37.373Z,79.77
2022-10-30T16:16:02.436Z,79.91
2022-10-30T16:18:28.915Z,79.69
2022-10-30T16:20:55.065Z,79.77
2022-10-30T16:23:20.108Z,80.18
2022-10-30T16:25:47.401Z,80.50
2022-10-30T16:28:29.091Z,81.28
2022-10-30T16:30:53.386Z,81.48
2022-10-30T16:33:17.359Z,80.88
2022-10-30T16:35:41.334Z,80.21
2022-10-30T16:38:04.979Z,81.33
2022-10-30T16:40:30.436Z,81.61
2022-10-30T16:42:59.291Z,80.43
2022-10-30T16:45:49.092Z,81.64
2022-10-30T16:48:27.691Z,81.96
2022-10-30T16:50:51.365Z,82.56
2022-10-30T16:53:21.578Z,82.25
2022-10-30T16:55:45.349Z,82.43
2022-10-30T16:58:14.631Z,83.46
2022-10-30T17:00:39.709Z,83.38
2022-10-30T17:03:10.371Z,83.18
2022-10-30T17:05:36.947Z,83.23
2022-10-30T17:08:04.249Z,83.08
2022-10-30T17:10:33.786Z,83.55
2022-10-30T17:13:37.226Z,84.42
2022-10-30T17:16:23.344Z,84.85
2022-10-30T17:18:48.057Z,84.35
2022-10-30T17:21:13.929Z,83.66
2022-10-30T17:23:38.114Z,84.36
2022-10-30T17:26:10.302Z,83.38
2022-10-30T17:28:37.419Z,83.67
2022-10-30T17:31:43.564Z,84.65
2022-10-30T17:34:19.106Z,84.69
2022-10-30T17:36:43.128Z,84.71
2022-10-30T17:39:06.861Z,84.52
2022-10-30T17:41:30.627Z,84.51
2022-10-30T17:43:58.015Z,85.10
2022-10-30T17:46:21.591Z,85.66
2022-10-30T17:48:45.105Z,85.17
2022-10-30T17:51:10.545Z,84.73
2022-10-30T17:53:34.071Z,85.63
2022-10-30T17:56:03.772Z,84.30
2022-10-30T17:58:27.334Z,84.15
2022-10-30T18:00:52.663Z,84.97
2022-10-30T18:03:16.298Z,84.51
2022-10-30T18:05:42.365Z,84.78
2022-10-30T18:08:06.402Z,85.50
2022-10-30T18:10:31.127Z,85.57
2022-10-30T18:12:54.647Z,84.93
2022-10-30T18:15:40.929Z,85.01
2022-10-30T18:18:06.701Z,85.70
2022-10-30T18:20:30.713Z,85.51
2022-10-30T18:22:55.601Z,85.47
2022-10-30T18:25:24.365Z,84.68
2022-10-30T18:27:47.934Z,85.95
2022-10-30T18:30:13.978Z,85.87
2022-10-30T18:32:37.549Z,85.68
2022-10-30T18:35:02.508Z,85.45
2022-10-30T18:37:26.074Z,86.16
2022-10-30T18:39:49.594Z,85.56
2022-10-30T18:42:13.161Z,87.16
2022-10-30T18:44:36.755Z,86.28
2022-10-30T18:47:03.160Z,85.73
2022-10-30T18:49:29.211Z,86.52
2022-10-30T18:51:55.117Z,86.38
2022-10-30T18:54:18.782Z,86.88
2022-10-30T18:56:42.372Z,85.87
2022-10-30T18:59:05.901Z,86.66
2022-10-30T19:01:29.655Z,86.55
2022-10-30T19:03:53.255Z,87.20
2022-10-30T19:06:19.394Z,87.03
2022-10-30T19:08:44.341Z,86.23
2022-10-30T19:11:08.322Z,87.71
2022-10-30T19:13:31.868Z,86.25
2022-10-30T19:16:00.419Z,86.62
2022-10-30T19:18:25.913Z,87.47
2022-10-30T19:21:04.061Z,86.77
2022-10-30T19:23:29.274Z,87.06
2022-10-30T19:25:55.059Z,87.08
2022-10-30T19:28:20.774Z,86.80
2022-10-30T19:30:50.117Z,85.95
2022-10-30T19:33:13.718Z,85.84
2022-10-30T19:35:37.424Z,86.32
2022-10-30T19:38:01.420Z,87.28
2022-10-30T19:40:28.368Z,87.72
2022-10-30T19:42:54.310Z,87.41
2022-10-30T19:45:22.135Z,86.96
2022-10-30T19:47:49.599Z,87.07
2022-10-30T19:50:27.269Z,87.69
2022-10-30T19:52:51.545Z,86.57
2022-10-30T19:55:15.289Z,87.21
2022-10-30T19:57:38.830Z,87.93
2022-10-30T20:00:04.051Z,87.33
2022-10-30T20:02:29.871Z,88.19
2022-10-30T20:04:53.465Z,88.30
2022-10-30T20:07:17.540Z,88.05
2022-10-30T20:09:41.107Z,87.35
2022-10-30T20:12:06.094Z,87.15
2022-10-30T20:14:29.603Z,87.93
2022-10-30T20:16:54.553Z,87.43
2022-10-30T20:19:28.712Z,87.28
2022-10-30T20:21:52.277Z,87.15
2022-10-30T20:24:15.781Z,87.93
2022-10-30T20:26:41.107Z,87.58
2022-10-30T20:29:04.723Z,86.52
2022-10-30T20:31:28.323Z,87.51
2022-10-30T20:33:53.411Z,87.59
2022-10-30T20:36:16.972Z,87.82
2022-10-30T20:38:40.870Z,87.44
2022-10-30T20:41:06.261Z,87.67
2022-10-30T20:43:33.139Z,87.09
2022-10-30T20:45:56.842Z,87.06
2022-10-30T20:48:20.401Z,87.74
2022-10-30T20:50:50.325Z,87.83
2022-10-30T20:53:15.167Z,87.81
2022-10-30T20:55:38.824Z,88.14
2022-10-30T20:58:02.660Z,88.16
2022-10-30T21:00:26.460Z,87.78
2022-10-30T21:02:50.069Z,88.10
2022-10-30T21:05:30.567Z,87.58
2022-10-30T21:07:59.562Z,88.03
2022-10-30T21:10:27.833Z,87.68
2022-10-30T21:15:24.218Z,86.78
2022-10-30T21:17:47.818Z,87.68
2022-10-30T21:20:12.606Z,88.08
2022-10-30T21:22:36.194Z,87.19
2022-10-30T21:25:01.080Z,86.61
2022-10-30T21:27:24.677Z,88.16
2022-10-30T21:29:48.218Z,88.07
2022-10-30T21:32:11.759Z,88.25
2022-10-30T21:34:35.394Z,86.57
2022-10-30T21:36:59.327Z,88.16
2022-10-30T21:39:22.809Z,87.19
2022-10-30T21:41:47.760Z,87.11
2022-10-30T21:44:11.559Z,87.67
2022-10-30T21:46:35.217Z,86.76
2022-10-30T21:49:04.258Z,87.98
2022-10-30T21:51:28.658Z,88.18
2022-10-30T21:53:52.605Z,86.83
2022-10-30T21:56:19.553Z,87.09
2022-10-30T21:58:44.806Z,87.30
2022-10-30T22:01:08.757Z,87.09
2022-10-30T22:03:33.132Z,87.99
2022-10-30T22:05:56.974Z,87.21
2022-10-30T22:08:20.858Z,86.09
2022-10-30T22:10:44.478Z,87.33
2022-10-30T22:13:08.050Z,87.77
2022-10-30T22:15:33.047Z,87.93
2022-10-30T22:17:56.747Z,87.72
2022-10-30T22:20:20.521Z,86.75
2022-10-30T22:22:44.021Z,87.02
2022-10-30T22:25:08.065Z,87.53
2022-10-30T22:27:31.598Z,87.94
2022-10-30T22:29:55.201Z,87.93
2022-10-30T22:32:20.094Z,87.65
2022-10-30T22:34:43.665Z,87.61
2022-10-30T22:37:07.338Z,86.89
2022-10-30T22:39:30.885Z,87.19
2022-10-30T22:41:54.507Z,87.70
2022-10-30T22:44:19.008Z,87.75
2022-10-30T22:46:42.749Z,87.56
2022-10-30T22:49:08.693Z,87.30
2022-10-30T22:51:34.157Z,86.20
2022-10-30T22:53:59.965Z,86.15
2022-10-30T22:56:26.196Z,86.26
2022-10-30T22:58:51.677Z,88.49
2022-10-30T23:01:17.675Z,87.75
2022-10-30T23:03:41.944Z,87.37
2022-10-30T23:06:07.134Z,88.25
2022-10-30T23:08:30.972Z,88.03
2022-10-30T23:10:54.834Z,87.66
2022-10-30T23:13:18.457Z,88.60
2022-10-30T23:15:41.994Z,87.46
2022-10-30T23:18:06.001Z,89.19
2022-10-30T23:20:29.631Z,88.02
2022-10-30T23:22:54.592Z,88.34
2022-10-30T23:25:18.312Z,87.17
2022-10-30T23:27:41.870Z,88.04
2022-10-30T23:30:06.457Z,87.18
2022-10-30T23:32:30.054Z,87.02
2022-10-30T23:34:53.582Z,86.61
2022-10-30T23:37:17.175Z,87.24
2022-10-30T23:39:42.132Z,87.11
2022-10-30T23:42:05.874Z,87.30
2022-10-30T23:44:29.546Z,87.26
2022-10-30T23:46:53.462Z,86.19
2022-10-30T23:49:17.252Z,86.72
2022-10-30T23:51:40.886Z,86.40
2022-10-30T23:54:05.053Z,87.12
2022-10-30T23:56:30.645Z,87.12
2022-10-30T23:58:54.546Z,87.35
